createdAt,value
2022-09-15T00:00:56.812Z,24.10
2022-09-15T00:03:24.254Z,24.10
2022-09-15T00:05:53.851Z,24.00
2022-09-15T00:08:21.303Z,24.00
2022-09-15T00:10:53.969Z,23.90
2022-09-15T00:13:22.179Z,23.90
2022-09-15T00:15:49.091Z,23.70
2022-09-15T00:18:15.865Z,23.70
2022-09-15T00:20:44.348Z,23.80
2022-09-15T00:23:13.514Z,23.90
2022-09-15T00:25:46.190Z,23.90
2022-09-15T00:28:14.208Z,23.80
2022-09-15T00:30:43.647Z,23.70
2022-09-15T00:33:12.433Z,23.70
2022-09-15T00:35:40.362Z,23.80
2022-09-15T00:38:08.353Z,24.00
2022-09-15T00:40:44.440Z,24.10
2022-09-15T00:43:11.966Z,23.90
2022-09-15T00:45:39.208Z,23.90
2022-09-15T00:48:08.185Z,23.90
2022-09-15T00:50:37.726Z,23.90
2022-09-15T00:53:08.830Z,23.80
2022-09-15T00:55:48.571Z,23.70
2022-09-15T00:58:22.104Z,23.60
2022-09-15T01:00:55.549Z,23.50
2022-09-15T01:03:24.805Z,23.50
2022-09-15T01:05:56.505Z,23.50
2022-09-15T01:08:30.528Z,23.40
2022-09-15T01:10:57.592Z,23.40
2022-09-15T01:13:24.454Z,23.40
2022-09-15T01:16:13.794Z,23.20
2022-09-15T01:19:09.998Z,23.20
2022-09-15T01:21:50.733Z,23.20
2022-09-15T01:24:26.153Z,23.30
2022-09-15T01:27:13.686Z,23.20
2022-09-15T01:30:03.503Z,23.20
2022-09-15T01:33:04.031Z,23.10
2022-09-15T01:35:34.005Z,23.10
2022-09-15T01:38:27.076Z,23.10
2022-09-15T01:41:18.259Z,23.10
2022-09-15T01:43:55.231Z,23.10
2022-09-15T01:46:25.616Z,23.20
2022-09-15T01:48:55.329Z,23.20
2022-09-15T01:51:23.874Z,23.10
2022-09-15T01:53:52.869Z,23.10
2022-09-15T01:56:19.726Z,23.00
2022-09-15T01:58:50.941Z,22.90
2022-09-15T02:01:29.717Z,22.90
2022-09-15T02:04:10.692Z,22.90
2022-09-15T02:06:57.740Z,22.80
2022-09-15T02:09:46.986Z,22.80
2022-09-15T02:12:19.954Z,22.60
2022-09-15T02:14:52.648Z,22.60
2022-09-15T02:17:20.625Z,22.60
2022-09-15T02:19:53.649Z,22.60
2022-09-15T02:22:28.761Z,22.60
2022-09-15T02:25:10.190Z,22.50
2022-09-15T02:27:46.067Z,22.60
2022-09-15T02:30:15.823Z,22.50
2022-09-15T02:32:51.444Z,22.50
2022-09-15T02:35:18.600Z,22.70
2022-09-15T02:37:46.684Z,22.70
2022-09-15T02:40:13.616Z,22.80
2022-09-15T02:42:42.463Z,22.60
2022-09-15T02:45:09.668Z,22.60
2022-09-15T02:47:36.392Z,22.50
2022-09-15T02:50:03.530Z,22.40
2022-09-15T02:52:30.246Z,22.30
2022-09-15T02:54:57.371Z,22.20
2022-09-15T02:57:24.497Z,22.10
2022-09-15T03:00:10.042Z,22.10
2022-09-15T03:02:36.946Z,22.00
2022-09-15T03:05:03.970Z,22.10
2022-09-15T03:07:31.941Z,22.10
2022-09-15T03:09:59.009Z,22.10
2022-09-15T03:12:26.482Z,22.00
2022-09-15T03:14:53.215Z,22.00
2022-09-15T03:17:20.355Z,22.10
2022-09-15T03:19:47.080Z,22.10
2022-09-15T03:22:13.797Z,22.30
2022-09-15T03:24:42.413Z,22.20
2022-09-15T03:27:09.628Z,22.20
2022-09-15T03:29:36.379Z,22.20
2022-09-15T03:32:03.113Z,22.10
2022-09-15T03:34:29.789Z,22.10
2022-09-15T03:36:56.481Z,22.30
2022-09-15T03:39:23.246Z,22.30
2022-09-15T03:41:49.955Z,22.20
2022-09-15T03:44:16.634Z,22.20
2022-09-15T03:46:43.442Z,22.10
2022-09-15T03:49:10.202Z,22.00
2022-09-15T03:51:37.342Z,21.90
2022-09-15T03:54:04.210Z,21.70
2022-09-15T03:56:32.682Z,21.80
2022-09-15T03:59:01.761Z,21.80
2022-09-15T04:01:30.333Z,21.80
2022-09-15T04:03:57.922Z,21.70
2022-09-15T04:06:25.881Z,21.60
2022-09-15T04:08:53.645Z,21.50
2022-09-15T04:11:22.751Z,21.50
2022-09-15T04:13:50.228Z,21.40
2022-09-15T04:16:19.822Z,21.60
2022-09-15T04:18:46.904Z,21.80
2022-09-15T04:21:16.758Z,21.80
2022-09-15T04:23:44.296Z,21.70
2022-09-15T04:26:21.872Z,21.80
2022-09-15T04:28:49.050Z,21.70
2022-09-15T04:31:17.545Z,21.80
2022-09-15T04:33:45.330Z,21.80
2022-09-15T04:36:15.860Z,21.70
2022-09-15T04:38:43.205Z,21.90
2022-09-15T04:41:11.390Z,21.90
2022-09-15T04:43:38.452Z,22.20
2022-09-15T04:46:05.725Z,22.40
2022-09-15T04:48:32.793Z,22.30
2022-09-15T04:51:08.116Z,22.40
2022-09-15T04:53:35.844Z,22.40
2022-09-15T04:56:13.986Z,22.90
2022-09-15T04:59:00.906Z,23.10
2022-09-15T05:01:33.737Z,23.50
2022-09-15T05:04:04.016Z,23.70
2022-09-15T05:06:32.219Z,24.00
2022-09-15T05:08:59.421Z,24.20
2022-09-15T05:11:28.239Z,24.30
2022-09-15T05:13:55.241Z,24.50
2022-09-15T05:16:27.238Z,24.70
2022-09-15T05:18:57.240Z,24.80
2022-09-15T05:21:24.713Z,24.80
2022-09-15T05:23:52.786Z,24.60
2022-09-15T05:26:25.421Z,24.40
2022-09-15T05:28:52.614Z,24.20
2022-09-15T05:31:20.542Z,23.90
2022-09-15T05:33:48.899Z,23.90
2022-09-15T05:36:17.446Z,23.80
2022-09-15T05:38:45.074Z,23.80
2022-09-15T05:41:16.142Z,23.70
2022-09-15T05:43:43.506Z,23.70
2022-09-15T05:46:10.963Z,23.70
2022-09-15T05:48:37.925Z,23.70
2022-09-15T05:51:05.110Z,23.70
2022-09-15T05:53:34.735Z,23.70
2022-09-15T05:56:04.649Z,23.70
2022-09-15T05:58:32.017Z,23.60
2022-09-15T06:01:05.552Z,23.60
2022-09-15T06:03:32.592Z,23.60
2022-09-15T06:06:00.384Z,23.50
2022-09-15T06:08:32.201Z,23.40
2022-09-15T06:11:13.798Z,23.40
2022-09-15T06:13:40.530Z,23.40
2022-09-15T06:16:13.257Z,23.40
2022-09-15T06:18:41.057Z,23.30
2022-09-15T06:21:11.231Z,23.20
2022-09-15T06:23:38.927Z,23.10
2022-09-15T06:26:08.111Z,23.10
2022-09-15T06:28:35.645Z,23.10
2022-09-15T06:31:03.001Z,23.10
2022-09-15T06:33:29.922Z,23.10
2022-09-15T06:35:56.806Z,23.10
2022-09-15T06:38:23.546Z,23.10
2022-09-15T06:40:58.239Z,23.10
2022-09-15T06:43:25.874Z,23.10
2022-09-15T06:45:52.796Z,23.20
2022-09-15T06:48:24.801Z,23.30
2022-09-15T06:50:55.960Z,23.20
2022-09-15T06:53:23.017Z,23.30
2022-09-15T06:55:50.604Z,23.40
2022-09-15T06:58:17.351Z,23.30
2022-09-15T07:00:44.643Z,23.30
2022-09-15T07:03:11.494Z,23.20
2022-09-15T07:05:38.429Z,23.20
2022-09-15T07:08:05.250Z,23.20
2022-09-15T07:10:32.127Z,23.10
2022-09-15T07:13:01.222Z,22.90
2022-09-15T07:15:28.388Z,22.90
2022-09-15T07:17:55.103Z,22.70
2022-09-15T07:20:21.816Z,22.50
2022-09-15T07:22:48.746Z,22.40
2022-09-15T07:25:15.928Z,22.40
2022-09-15T07:27:42.626Z,22.40
2022-09-15T07:30:10.651Z,22.30
2022-09-15T07:32:37.414Z,22.20
2022-09-15T07:35:04.821Z,22.20
2022-09-15T07:37:33.157Z,22.20
2022-09-15T07:40:00.389Z,22.20
2022-09-15T07:42:27.194Z,22.20
2022-09-15T07:44:53.964Z,22.30
2022-09-15T07:47:20.748Z,22.30
2022-09-15T07:49:47.463Z,22.40
2022-09-15T07:52:14.573Z,22.40
2022-09-15T07:54:41.696Z,22.50
2022-09-15T07:57:08.835Z,22.60
2022-09-15T07:59:39.329Z,22.70
2022-09-15T08:02:18.465Z,22.80
2022-09-15T08:04:45.470Z,23.00
2022-09-15T08:07:13.049Z,23.10
2022-09-15T08:09:40.498Z,23.30
2022-09-15T08:12:08.153Z,23.50
2022-09-15T08:14:34.974Z,23.70
2022-09-15T08:17:08.142Z,24.00
2022-09-15T08:19:37.865Z,24.20
2022-09-15T08:22:05.638Z,24.50
2022-09-15T08:24:32.556Z,24.70
2022-09-15T08:26:59.281Z,24.90
2022-09-15T08:29:26.402Z,25.20
2022-09-15T08:31:53.512Z,25.40
2022-09-15T08:34:20.534Z,25.60
2022-09-15T08:36:47.457Z,25.60
2022-09-15T08:39:14.233Z,25.70
2022-09-15T08:41:44.558Z,25.80
2022-09-15T08:44:34.788Z,26.10
2022-09-15T08:47:46.083Z,26.30
2022-09-15T08:50:29.827Z,26.60
2022-09-15T08:53:12.776Z,26.80
2022-09-15T08:55:48.384Z,27.00
2022-09-15T08:58:18.686Z,27.10
2022-09-15T09:00:53.620Z,27.20
2022-09-15T09:03:53.778Z,27.30
2022-09-15T09:06:57.462Z,27.50
2022-09-15T09:09:52.565Z,27.60
2022-09-15T09:12:41.118Z,27.80
2022-09-15T09:15:32.655Z,28.10
2022-09-15T09:18:08.723Z,27.90
2022-09-15T09:21:02.072Z,27.90
2022-09-15T09:23:33.311Z,27.70
2022-09-15T09:26:02.164Z,27.70
2022-09-15T09:28:37.675Z,27.70
2022-09-15T09:31:09.690Z,27.90
2022-09-15T09:33:45.084Z,27.90
2022-09-15T09:36:14.320Z,27.80
2022-09-15T09:38:44.530Z,27.80
2022-09-15T09:41:22.258Z,27.70
2022-09-15T09:43:54.204Z,27.60
2022-09-15T09:46:21.677Z,27.70
2022-09-15T09:49:02.819Z,27.70
2022-09-15T09:51:34.768Z,27.90
2022-09-15T09:54:16.419Z,28.10
2022-09-15T09:56:44.867Z,28.20
2022-09-15T09:59:40.128Z,28.40
2022-09-15T10:02:26.828Z,28.50
2022-09-15T10:04:54.624Z,28.60
2022-09-15T10:07:25.124Z,28.40
2022-09-15T10:09:57.341Z,28.50
2022-09-15T10:12:33.551Z,28.30
2022-09-15T10:15:03.657Z,28.20
2022-09-15T10:17:36.399Z,28.20
2022-09-15T10:20:05.796Z,28.40
2022-09-15T10:22:34.222Z,28.40
2022-09-15T10:25:03.852Z,28.50
2022-09-15T10:27:35.689Z,28.60
2022-09-15T10:30:14.751Z,28.70
2022-09-15T10:32:43.270Z,29.00
2022-09-15T10:35:13.203Z,29.40
2022-09-15T10:37:46.282Z,29.70
2022-09-15T10:40:34.523Z,29.60
2022-09-15T10:43:27.062Z,29.90
2022-09-15T10:46:27.672Z,30.00
2022-09-15T10:49:25.460Z,30.10
2022-09-15T10:51:58.149Z,30.50
2022-09-15T10:54:41.945Z,30.70
2022-09-15T10:57:34.782Z,31.00
2022-09-15T11:00:23.139Z,31.10
2022-09-15T11:03:05.045Z,31.60
2022-09-15T11:05:40.869Z,32.30
2022-09-15T11:08:26.439Z,32.20
2022-09-15T11:11:10.655Z,32.30
2022-09-15T11:14:14.739Z,31.90
2022-09-15T11:17:15.348Z,32.00
2022-09-15T11:20:14.730Z,32.10
2022-09-15T11:22:59.518Z,32.70
2022-09-15T11:25:31.434Z,32.90
2022-09-15T11:28:04.591Z,32.80
2022-09-15T11:30:45.650Z,32.80
2022-09-15T11:33:21.127Z,33.00
2022-09-15T11:35:51.838Z,33.40
2022-09-15T11:38:42.804Z,33.50
2022-09-15T11:41:21.533Z,34.90
2022-09-15T11:43:54.322Z,37.20
2022-09-15T11:46:29.748Z,39.20
2022-09-15T11:49:18.363Z,40.50
2022-09-15T11:51:58.959Z,41.20
2022-09-15T11:54:34.611Z,42.10
2022-09-15T11:57:01.519Z,42.80
2022-09-15T12:00:04.263Z,42.90
2022-09-15T12:02:53.351Z,42.30
2022-09-15T12:05:26.555Z,41.10
2022-09-15T12:08:15.586Z,39.80
2022-09-15T12:10:48.778Z,40.10
2022-09-15T12:13:20.662Z,39.20
2022-09-15T12:15:49.667Z,38.90
2022-09-15T12:18:38.471Z,39.20
2022-09-15T12:21:44.019Z,39.10
2022-09-15T12:24:33.763Z,38.80
2022-09-15T12:27:01.729Z,38.00
2022-09-15T12:29:28.399Z,37.50
2022-09-15T12:32:19.645Z,36.80
2022-09-15T12:34:59.842Z,36.90
2022-09-15T12:37:49.167Z,36.40
2022-09-15T12:40:33.547Z,37.10
2022-09-15T12:43:10.983Z,36.90
2022-09-15T12:45:39.309Z,36.20
2022-09-15T12:48:14.182Z,35.50
2022-09-15T12:50:43.336Z,35.80
2022-09-15T12:53:20.934Z,36.60
2022-09-15T12:55:53.292Z,36.40
2022-09-15T12:58:33.221Z,37.00
2022-09-15T13:01:23.374Z,38.50
2022-09-15T13:03:50.201Z,38.90
2022-09-15T13:06:23.760Z,38.90
2022-09-15T13:09:27.107Z,38.60
2022-09-15T13:11:56.121Z,37.60
2022-09-15T13:14:29.019Z,35.50
2022-09-15T13:17:01.418Z,34.10
2022-09-15T13:19:35.859Z,33.30
2022-09-15T13:22:12.296Z,32.80
2022-09-15T13:24:50.954Z,32.30
2022-09-15T13:27:22.406Z,31.80
2022-09-15T13:29:52.333Z,31.40
2022-09-15T13:32:42.409Z,31.40
2022-09-15T13:35:19.990Z,31.50
2022-09-15T13:38:24.037Z,31.80
2022-09-15T13:41:31.077Z,31.70
2022-09-15T13:44:30.489Z,32.20
2022-09-15T13:47:29.785Z,33.70
2022-09-15T13:50:18.279Z,33.90
2022-09-15T13:53:03.671Z,34.60
2022-09-15T13:55:36.761Z,34.70
2022-09-15T14:00:55.047Z,34.80
2022-09-15T14:03:37.059Z,35.10
2022-09-15T14:06:22.398Z,35.30
2022-09-15T14:08:54.538Z,35.20
2022-09-15T14:11:26.651Z,34.90
2022-09-15T14:13:54.720Z,34.50
2022-09-15T14:16:27.881Z,34.40
2022-09-15T14:18:57.712Z,34.20
2022-09-15T14:21:28.167Z,33.90
2022-09-15T14:24:00.549Z,34.00
2022-09-15T14:26:29.691Z,33.90
2022-09-15T14:28:59.086Z,33.90
2022-09-15T14:31:36.391Z,33.60
2022-09-15T14:34:06.975Z,33.20
2022-09-15T14:36:34.855Z,32.90
2022-09-15T14:39:04.750Z,32.40
2022-09-15T14:41:35.422Z,32.10
2022-09-15T14:44:03.123Z,31.50
2022-09-15T14:46:37.743Z,31.30
2022-09-15T14:49:11.734Z,30.90
2022-09-15T14:51:39.139Z,30.70
2022-09-15T14:54:15.662Z,30.70
2022-09-15T14:56:44.178Z,30.80
2022-09-15T14:59:31.188Z,30.60
2022-09-15T15:02:18.046Z,30.70
2022-09-15T15:04:50.425Z,31.00
2022-09-15T15:07:22.668Z,30.90
2022-09-15T15:10:00.434Z,30.80
2022-09-15T15:12:30.578Z,30.70
2022-09-15T15:15:00.090Z,30.40
2022-09-15T15:17:49.738Z,30.20
2022-09-15T15:20:30.125Z,29.90
2022-09-15T15:23:11.870Z,29.60
2022-09-15T15:25:39.441Z,29.30
2022-09-15T15:28:07.718Z,29.20
2022-09-15T15:30:46.876Z,29.00
2022-09-15T15:33:24.288Z,28.90
2022-09-15T15:36:15.306Z,28.70
2022-09-15T15:38:50.948Z,28.60
2022-09-15T15:41:33.848Z,28.50
2022-09-15T15:44:08.370Z,28.40
2022-09-15T15:46:55.050Z,28.40
2022-09-15T15:49:27.299Z,28.30
2022-09-15T15:51:55.498Z,28.20
2022-09-15T15:54:23.306Z,28.20
2022-09-15T15:56:51.655Z,28.00
2022-09-15T15:59:18.601Z,28.00
2022-09-15T16:01:49.213Z,27.90
2022-09-15T16:04:16.032Z,27.90
2022-09-15T16:06:44.426Z,27.80
2022-09-15T16:09:14.732Z,27.80
2022-09-15T16:11:43.069Z,27.80
2022-09-15T16:14:15.691Z,27.80
2022-09-15T16:16:42.441Z,27.70
2022-09-15T16:19:09.661Z,27.60
2022-09-15T16:21:42.259Z,27.60
2022-09-15T16:24:14.983Z,27.60
2022-09-15T16:26:43.041Z,27.50
2022-09-15T16:29:10.605Z,27.50
2022-09-15T16:31:38.368Z,27.50
2022-09-15T16:34:05.247Z,27.40
2022-09-15T16:36:35.005Z,27.30
2022-09-15T16:39:01.741Z,27.30
2022-09-15T16:41:28.953Z,27.20
2022-09-15T16:43:58.576Z,27.20
2022-09-15T16:46:25.475Z,27.20
2022-09-15T16:48:52.285Z,27.10
2022-09-15T16:51:29.764Z,27.10
2022-09-15T16:53:58.162Z,27.10
2022-09-15T16:56:25.499Z,27.10
2022-09-15T16:58:58.860Z,27.00
2022-09-15T17:01:27.439Z,27.00
2022-09-15T17:03:54.318Z,27.00
2022-09-15T17:06:22.120Z,27.00
2022-09-15T17:08:49.472Z,27.00
2022-09-15T17:11:18.766Z,26.90
2022-09-15T17:13:46.140Z,26.90
2022-09-15T17:16:15.366Z,26.90
2022-09-15T17:18:42.155Z,26.90
2022-09-15T17:21:14.806Z,26.90
2022-09-15T17:23:44.893Z,26.90
2022-09-15T17:26:28.793Z,27.00
2022-09-15T17:28:58.144Z,27.00
2022-09-15T17:31:25.238Z,27.00
2022-09-15T17:33:53.115Z,27.00
2022-09-15T17:36:20.288Z,26.90
2022-09-15T17:38:48.949Z,26.90
2022-09-15T17:41:18.677Z,26.90
2022-09-15T17:43:46.095Z,26.90
2022-09-15T17:46:13.508Z,26.90
2022-09-15T17:48:40.399Z,26.90
2022-09-15T17:51:09.627Z,26.90
2022-09-15T17:53:36.432Z,27.00
2022-09-15T17:56:03.594Z,26.90
2022-09-15T17:58:31.804Z,26.90
2022-09-15T18:00:59.180Z,26.90
2022-09-15T18:03:34.735Z,26.90
2022-09-15T18:06:05.329Z,26.90
2022-09-15T18:08:33.387Z,26.90
2022-09-15T18:11:05.935Z,26.90
2022-09-15T18:13:33.510Z,26.80
2022-09-15T18:16:10.123Z,26.90
2022-09-15T18:18:37.980Z,26.90
2022-09-15T18:21:08.860Z,26.90
2022-09-15T18:23:37.446Z,26.90
2022-09-15T18:26:04.195Z,26.80
2022-09-15T18:28:30.892Z,26.70
2022-09-15T18:30:57.644Z,26.70
2022-09-15T18:33:25.544Z,26.70
2022-09-15T18:35:54.979Z,26.70
2022-09-15T18:38:25.059Z,26.70
2022-09-15T18:40:56.426Z,26.70
2022-09-15T18:43:28.103Z,26.60
2022-09-15T18:45:59.590Z,26.50
2022-09-15T18:48:26.738Z,26.50
2022-09-15T18:50:54.115Z,26.50
2022-09-15T18:53:21.148Z,26.50
2022-09-15T18:55:47.852Z,26.40
2022-09-15T18:58:14.625Z,26.50
2022-09-15T19:00:41.949Z,26.40
2022-09-15T19:03:13.968Z,26.30
2022-09-15T19:05:41.549Z,26.30
2022-09-15T19:08:09.180Z,26.30
2022-09-15T19:10:36.013Z,26.10
2022-09-15T19:13:02.805Z,26.10
2022-09-15T19:15:33.681Z,26.00
2022-09-15T19:18:00.544Z,26.00
2022-09-15T19:20:27.421Z,26.10
2022-09-15T19:22:54.519Z,26.10
2022-09-15T19:25:21.287Z,26.00
2022-09-15T19:27:48.582Z,26.00
2022-09-15T19:30:15.457Z,25.90
2022-09-15T19:32:42.629Z,25.90
2022-09-15T19:35:11.272Z,25.80
2022-09-15T19:37:39.854Z,25.80
2022-09-15T19:40:10.434Z,25.70
2022-09-15T19:42:38.743Z,25.70
2022-09-15T19:45:06.798Z,25.60
2022-09-15T19:47:33.775Z,25.60
2022-09-15T19:50:00.537Z,25.50
2022-09-15T19:52:28.270Z,25.50
2022-09-15T19:54:55.157Z,25.50
2022-09-15T19:57:22.721Z,25.50
2022-09-15T19:59:49.863Z,25.60
2022-09-15T20:02:17.260Z,25.50
2022-09-15T20:04:44.808Z,25.50
2022-09-15T20:07:12.557Z,25.50
2022-09-15T20:09:39.380Z,25.50
2022-09-15T20:12:07.134Z,25.40
2022-09-15T20:14:34.446Z,25.50
2022-09-15T20:17:01.825Z,25.40
2022-09-15T20:19:30.125Z,25.40
2022-09-15T20:21:56.915Z,25.30
2022-09-15T20:24:24.487Z,25.00
2022-09-15T20:26:52.735Z,24.60
2022-09-15T20:29:20.163Z,24.30
2022-09-15T20:31:47.631Z,24.10
2022-09-15T20:34:15.367Z,23.90
2022-09-15T20:36:43.501Z,23.70
2022-09-15T20:39:13.582Z,23.50
2022-09-15T20:41:47.233Z,23.50
2022-09-15T20:44:15.113Z,23.40
2022-09-15T20:46:42.785Z,23.30
2022-09-15T20:49:11.341Z,23.30
2022-09-15T20:51:38.213Z,23.20
2022-09-15T20:54:05.693Z,23.10
2022-09-15T20:56:35.385Z,22.90
2022-09-15T20:59:03.989Z,22.80
2022-09-15T21:01:37.446Z,22.70
2022-09-15T21:04:05.534Z,22.70
2022-09-15T21:06:33.065Z,22.70
2022-09-15T21:09:00.282Z,22.60
2022-09-15T21:11:28.777Z,22.50
2022-09-15T21:13:56.983Z,22.40
2022-09-15T21:16:26.523Z,22.30
2022-09-15T21:18:53.613Z,22.20
2022-09-15T21:21:23.314Z,22.20
2022-09-15T21:24:03.632Z,22.20
2022-09-15T21:27:00.308Z,22.10
2022-09-15T21:29:28.523Z,22.20
2022-09-15T21:31:55.843Z,22.20
2022-09-15T21:34:22.753Z,22.30
2022-09-15T21:36:51.737Z,22.30
2022-09-15T21:39:18.579Z,22.20
2022-09-15T21:41:45.416Z,22.10
2022-09-15T21:44:12.644Z,22.00
2022-09-15T21:46:39.379Z,21.90
2022-09-15T21:49:06.143Z,21.90
2022-09-15T21:51:32.919Z,21.80
2022-09-15T21:54:00.394Z,21.70
2022-09-15T21:56:29.093Z,21.60
2022-09-15T21:58:56.389Z,21.30
2022-09-15T22:01:26.470Z,21.30
2022-09-15T22:04:01.767Z,21.30
2022-09-15T22:06:31.930Z,21.30
2022-09-15T22:09:05.643Z,21.20
2022-09-15T22:11:32.675Z,21.20
2022-09-15T22:14:01.736Z,21.00
2022-09-15T22:16:28.576Z,20.90
2022-09-15T22:18:56.397Z,20.90
2022-09-15T22:21:26.155Z,20.90
2022-09-15T22:23:59.042Z,20.90
2022-09-15T22:26:28.125Z,21.00
2022-09-15T22:28:55.937Z,21.10
2022-09-15T22:31:24.532Z,21.10
2022-09-15T22:33:52.269Z,21.00
2022-09-15T22:36:29.238Z,21.00
2022-09-15T22:39:03.498Z,21.00
2022-09-15T22:41:32.026Z,21.10
2022-09-15T22:43:58.887Z,21.10
2022-09-15T22:46:25.847Z,21.10
2022-09-15T22:48:52.626Z,21.00
2022-09-15T22:51:19.762Z,20.90
2022-09-15T22:53:47.023Z,20.90
2022-09-15T22:56:21.458Z,20.90
2022-09-15T22:58:49.509Z,20.70
2022-09-15T23:01:19.854Z,20.70
2022-09-15T23:03:57.744Z,20.70
2022-09-15T23:06:27.136Z,20.70
2022-09-15T23:08:59.520Z,20.70
2022-09-15T23:11:28.691Z,20.60
2022-09-15T23:13:55.944Z,20.50
2022-09-15T23:16:24.288Z,20.50
2022-09-15T23:18:51.924Z,20.60
2022-09-15T23:21:19.404Z,20.70
2022-09-15T23:23:47.637Z,20.80
2022-09-15T23:26:16.004Z,20.80
2022-09-15T23:28:43.117Z,20.70
2022-09-15T23:31:12.401Z,20.60
2022-09-15T23:33:40.044Z,20.70
2022-09-15T23:36:09.411Z,20.80
2022-09-15T23:38:40.743Z,20.80
2022-09-15T23:41:08.082Z,20.60
2022-09-15T23:43:35.289Z,20.50
2022-09-15T23:46:03.161Z,20.50
2022-09-15T23:48:33.828Z,20.50
2022-09-15T23:51:01.396Z,20.50
2022-09-15T23:53:28.407Z,20.60
2022-09-15T23:55:55.248Z,20.60
2022-09-15T23:58:22.016Z,20.70
